Time;durP1;ratioP1;P1;durP2;ratioP2;P2;SDS_P1;SDS_P2;PMS_P1;PMS_P2;Temp;Humidity;BMP_temperature;BMP_pressure;BME280_temperature;BME280_humidity;BME280_pressure;Samples;Min_cycle;Max_cycle;Signal;HPM_P1;HPM_P2
2021/08/15 00:00:21;;;;;;;;;;;;;;;22.15;82.39;96127.88;1041397;28;19963;-49
2021/08/15 00:00:52;;;;;;;;;;;;;;;22.17;82.09;96130.28;1041552;28;19916;-48
2021/08/15 00:01:22;;;;;;;;;;;;;;;22.10;82.51;96127.06;1041487;28;20266;-49
2021/08/15 00:01:52;;;;;;;;;;;;;;;22.09;82.77;96120.91;1041485;28;20012;-48
2021/08/15 00:02:23;;;;;;;;;;;;;;;22.10;82.62;96121.69;1041505;28;19912;-48
2021/08/15 00:02:53;;;;;;;;;;;;;;;22.13;82.64;96118.47;1041458;28;19917;-48
2021/08/15 00:03:23;;;;;;;;;;;;;;;22.15;82.37;96122.50;1041447;28;19905;-48
2021/08/15 00:03:53;;;;;;;;;;;;;;;22.12;82.53;96117.69;1041564;28;19905;-52
2021/08/15 00:04:24;;;;;;;;;;;;;;;22.09;82.80;96123.59;1041263;28;19912;-49
2021/08/15 00:04:54;;;;;;;;;;;;;;;22.12;82.83;96125.72;1041498;28;19905;-48
2021/08/15 00:05:24;;;;;;;;;;;;;;;22.12;82.84;96119.53;1041496;28;19913;-48
2021/08/15 00:05:55;;;;;;;;;;;;;;;22.14;83.14;96120.88;1041581;28;19912;-48
2021/08/15 00:06:25;;;;;;;;;;;;;;;22.13;82.52;96124.63;1041388;28;19911;-47
2021/08/15 00:06:55;;;;;;;;;;;;;;;22.15;82.47;96127.03;1041479;28;20346;-48
2021/08/15 00:07:25;;;;;;;;;;;;;;;22.15;82.17;96127.03;1041377;28;19915;-46
2021/08/15 00:07:56;;;;;;;;;;;;;;;22.14;82.36;96126.25;1041492;28;20000;-46
2021/08/15 00:08:27;;;;;;;;;;;;;;;22.14;82.24;96118.19;1041408;28;19910;-46
2021/08/15 00:08:57;;;;;;;;;;;;;;;22.11;82.50;96120.63;1041459;28;19985;-46
2021/08/15 00:09:27;;;;;;;;;;;;;;;22.09;82.56;96120.91;1041532;28;19913;-46
2021/08/15 00:09:57;;;;;;;;;;;;;;;22.09;82.38;96120.91;1032987;28;20302;-47
2021/08/15 00:10:28;;;;;;;;;;;;;;;22.02;82.68;96123.03;1033045;28;19968;-50
2021/08/15 00:10:58;;;;;;;;;;;;;;;22.04;82.74;96125.44;1033094;28;19916;-48
2021/08/15 00:11:28;;;;;;;;;;;;;;;22.03;82.76;96121.16;1033086;28;19910;-48
2021/08/15 00:11:59;;;;;;;;;;;;;;;22.06;82.79;96123.28;1037136;28;19929;-48
2021/08/15 00:12:29;;;;;;;;;;;;;;;22.06;82.69;96123.28;1037145;28;19921;-47
2021/08/15 00:12:59;;;;;;;;;;;;;;;22.06;82.60;96124.13;1037209;28;19944;-50
2021/08/15 00:13:29;;;;;;;;;;;;;;;22.02;82.93;96125.72;1037138;28;19913;-48
2021/08/15 00:14:00;;;;;;;;;;;;;;;22.04;82.66;96120.88;1041640;28;19975;-48
2021/08/15 00:14:30;;;;;;;;;;;;;;;22.03;82.39;96121.16;1041171;28;19913;-48
2021/08/15 00:15:00;;;;;;;;;;;;;;;21.99;82.68;96123.56;1041508;28;20289;-47
2021/08/15 00:15:31;;;;;;;;;;;;;;;21.97;82.81;96123.84;1041318;28;19978;-47
2021/08/15 00:16:01;;;;;;;;;;;;;;;21.96;83.06;96116.88;1041304;28;20332;-47
2021/08/15 00:16:32;;;;;;;;;;;;;;;21.95;82.89;96117.94;1041577;28;19981;-47
2021/08/15 00:17:03;;;;;;;;;;;;;;;21.94;82.85;96124.38;1041361;28;19913;-48
2021/08/15 00:17:33;;;;;;;;;;;;;;;21.94;82.92;96127.06;1041386;28;19988;-46
2021/08/15 00:18:03;;;;;;;;;;;;;;;21.93;82.82;96125.44;1041505;28;20369;-47
2021/08/15 00:18:36;;;;;;;;;;;;;;;21.91;83.05;96119.56;1041543;28;20002;-47
2021/08/15 00:19:06;;;;;;;;;;;;;;;21.87;82.99;96121.16;1041667;28;19983;-46
2021/08/15 00:19:37;;;;;;;;;;;;;;;21.89;83.01;96118.19;1041527;28;19920;-46
2021/08/15 00:20:10;;;;;;;;;;;;;;;21.90;82.87;96114.47;1041510;28;19917;-47
2021/08/15 00:20:41;;;;;;;;;;;;;;;21.90;82.74;96120.63;1041434;28;19913;-46
2021/08/15 00:21:12;;;;;;;;;;;;;;;21.95;82.82;96117.94;1033016;28;20358;-47
2021/08/15 00:21:42;;;;;;;;;;;;;;;21.94;81.91;96113.66;1033187;28;20066;-46
2021/08/15 00:22:12;;;;;;;;;;;;;;;21.87;82.19;96107.75;1028978;28;19914;-46
2021/08/15 00:22:43;;;;;;;;;;;;;;;21.91;81.92;96118.72;1029286;28;19914;-47
2021/08/15 00:23:13;;;;;;;;;;;;;;;21.91;81.99;96116.06;1037155;28;19920;-47
2021/08/15 00:23:43;;;;;;;;;;;;;;;21.93;82.36;96117.41;1036780;28;19976;-47
2021/08/15 00:24:14;;;;;;;;;;;;;;;21.95;82.13;96107.19;1041291;28;19916;-47
2021/08/15 00:24:44;;;;;;;;;;;;;;;21.98;81.89;96116.59;1041500;28;20369;-46
2021/08/15 00:25:15;;;;;;;;;;;;;;;21.97;81.45;96109.63;1041409;28;19959;-47
2021/08/15 00:25:45;;;;;;;;;;;;;;;21.94;81.50;96116.34;1041498;28;20346;-50
2021/08/15 00:26:15;;;;;;;;;;;;;;;21.97;81.88;96115.81;1041429;28;20358;-48
2021/08/15 00:26:46;;;;;;;;;;;;;;;22.04;81.70;96109.38;1041336;28;20020;-47
2021/08/15 00:27:16;;;;;;;;;;;;;;;21.98;81.32;96114.72;1041362;28;19912;-47
2021/08/15 00:27:46;;;;;;;;;;;;;;;21.92;81.44;96110.41;1036960;28;19921;-47
2021/08/15 00:28:17;;;;;;;;;;;;;;;21.95;81.26;96109.09;1037041;28;19968;-47
2021/08/15 00:28:47;;;;;;;;;;;;;;;21.93;81.52;96108.56;1036899;28;19953;-47
2021/08/15 00:29:17;;;;;;;;;;;;;;;21.92;81.50;96105.06;1036943;28;20260;-48
2021/08/15 00:29:47;;;;;;;;;;;;;;;21.92;81.29;96102.38;1041368;28;19909;-46
2021/08/15 00:30:18;;;;;;;;;;;;;;;21.96;81.82;96108.03;1041433;28;19912;-46
2021/08/15 00:30:48;;;;;;;;;;;;;;;21.94;81.51;96113.66;1041514;28;19905;-46
2021/08/15 00:31:18;;;;;;;;;;;;;;;21.91;81.80;96108.00;1041612;28;19909;-48
2021/08/15 00:31:50;;;;;;;;;;;;;;;21.89;81.59;96107.47;1037158;28;20283;-47
2021/08/15 00:32:20;;;;;;;;;;;;;;;21.91;81.51;96110.69;1033075;28;19958;-48
2021/08/15 00:32:51;;;;;;;;;;;;;;;21.88;81.82;96111.22;1033059;28;19962;-46
2021/08/15 00:33:21;;;;;;;;;;;;;;;21.87;82.21;96102.38;1029108;28;20395;-48
2021/08/15 00:33:51;;;;;;;;;;;;;;;21.83;81.91;96104.81;1033070;28;19917;-47
2021/08/15 00:34:21;;;;;;;;;;;;;;;21.83;82.14;96104.81;1036823;28;19910;-48
2021/08/15 00:34:52;;;;;;;;;;;;;;;21.82;82.40;96105.09;1037043;28;19916;-47
2021/08/15 00:35:22;;;;;;;;;;;;;;;21.80;81.94;96101.84;1041346;28;19913;-46
2021/08/15 00:35:52;;;;;;;;;;;;;;;21.82;81.77;96105.88;1041445;28;19932;-47
2021/08/15 00:36:22;;;;;;;;;;;;;;;21.80;81.82;96108.03;1041527;28;19917;-49
2021/08/15 00:36:53;;;;;;;;;;;;;;;21.78;82.14;96112.03;1041414;28;19927;-48
2021/08/15 00:37:23;;;;;;;;;;;;;;;21.77;82.41;96099.69;1041419;28;19973;-47
2021/08/15 00:37:53;;;;;;;;;;;;;;;21.74;82.33;96101.06;1041383;28;19960;-48
2021/08/15 00:38:24;;;;;;;;;;;;;;;21.79;82.52;96100.25;1041438;28;19913;-48
2021/08/15 00:38:54;;;;;;;;;;;;;;;21.78;82.48;96106.69;1041404;28;19905;-47
2021/08/15 00:39:24;;;;;;;;;;;;;;;21.71;82.61;96101.59;1041354;28;19980;-48
2021/08/15 00:39:55;;;;;;;;;;;;;;;21.73;82.53;96104.78;1041308;28;20295;-46
2021/08/15 00:40:26;;;;;;;;;;;;;;;21.73;82.68;96098.66;1041279;28;19909;-48
2021/08/15 00:40:57;;;;;;;;;;;;;;;21.73;82.76;96104.00;1041406;28;19909;-48
2021/08/15 00:41:27;;;;;;;;;;;;;;;21.74;82.91;96102.91;1036884;28;19936;-47
2021/08/15 00:41:57;;;;;;;;;;;;;;;21.72;82.86;96102.38;1036930;28;19916;-48
2021/08/15 00:42:28;;;;;;;;;;;;;;;21.63;83.41;96096.75;1036881;28;19909;-47
2021/08/15 00:42:58;;;;;;;;;;;;;;;21.63;83.75;96105.56;1036917;28;19910;-47
2021/08/15 00:43:31;;;;;;;;;;;;;;;21.61;83.87;96102.38;1041255;28;20338;-46
2021/08/15 00:44:02;;;;;;;;;;;;;;;21.60;83.90;96098.06;1041286;28;19917;-46
2021/08/15 00:44:32;;;;;;;;;;;;;;;21.64;84.03;96103.72;1041018;28;19916;-46
2021/08/15 00:45:02;;;;;;;;;;;;;;;21.67;83.82;96105.03;1041283;28;20376;-46
2021/08/15 00:45:33;;;;;;;;;;;;;;;21.64;84.18;96101.03;1037052;28;19925;-49
2021/08/15 00:46:07;;;;;;;;;;;;;;;21.55;84.64;96105.31;1036931;28;19910;-47
2021/08/15 00:46:37;;;;;;;;;;;;;;;21.50;85.20;96108.78;1036636;28;20355;-47
2021/08/15 00:47:07;;;;;;;;;;;;;;;21.51;85.03;96097.00;1037462;28;20012;-47
2021/08/15 00:47:38;;;;;;;;;;;;;;;21.48;85.33;96110.88;1041394;28;19913;-47
2021/08/15 00:48:08;;;;;;;;;;;;;;;21.51;85.46;96104.22;1041395;28;19905;-47
2021/08/15 00:48:39;;;;;;;;;;;;;;;21.43;85.72;96100.97;1036903;28;19909;-47
2021/08/15 00:49:09;;;;;;;;;;;;;;;21.39;85.93;96102.59;1032817;28;20416;-46
2021/08/15 00:49:39;;;;;;;;;;;;;;;21.43;86.03;96105.53;1032834;28;19956;-47
2021/08/15 00:50:10;;;;;;;;;;;;;;;21.40;86.31;96106.06;1032998;28;20017;-46
2021/08/15 00:50:40;;;;;;;;;;;;;;;21.39;86.28;96097.22;1036951;28;20274;-46
2021/08/15 00:51:10;;;;;;;;;;;;;;;21.45;86.01;96100.69;1041418;28;19901;-47
2021/08/15 00:51:41;;;;;;;;;;;;;;;21.42;86.08;96098.56;1041248;28;20331;-46
2021/08/15 00:52:11;;;;;;;;;;;;;;;21.37;86.77;96095.88;1041293;28;19931;-47
2021/08/15 00:52:41;;;;;;;;;;;;;;;21.40;86.46;96101.50;1041290;28;19913;-47
2021/08/15 00:53:12;;;;;;;;;;;;;;;21.46;86.22;96095.06;1041309;28;19905;-48
2021/08/15 00:53:42;;;;;;;;;;;;;;;21.52;85.91;96103.97;1041364;28;19906;-50
2021/08/15 00:54:12;;;;;;;;;;;;;;;21.55;85.95;96100.75;1041160;28;19959;-49
2021/08/15 00:54:42;;;;;;;;;;;;;;;21.53;85.52;96097.53;1036840;28;19909;-47
2021/08/15 00:55:13;;;;;;;;;;;;;;;21.47;85.74;96103.94;1037038;28;19901;-48
2021/08/15 00:55:43;;;;;;;;;;;;;;;21.43;86.26;96102.84;1036867;28;19905;-48
2021/08/15 00:56:13;;;;;;;;;;;;;;;21.40;86.41;96106.06;1036924;28;19905;-51
2021/08/15 00:56:48;;;;;;;;;;;;;;;21.40;86.69;96100.69;1040961;28;19948;-47
2021/08/15 00:57:18;;;;;;;;;;;;;;;21.41;86.48;96103.13;1041005;28;19905;-49
2021/08/15 00:57:49;;;;;;;;;;;;;;;21.43;86.34;96100.97;1036717;28;20294;-48
2021/08/15 00:58:19;;;;;;;;;;;;;;;21.40;86.44;96106.06;1032677;28;19942;-48
2021/08/15 00:58:50;;;;;;;;;;;;;;;21.36;86.50;96096.94;1032783;28;19929;-48
2021/08/15 00:59:20;;;;;;;;;;;;;;;21.42;86.41;96099.38;1032994;28;19902;-48
2021/08/15 00:59:51;;;;;;;;;;;;;;;21.38;86.45;96098.28;1037016;28;19988;-48
2021/08/15 01:00:21;;;;;;;;;;;;;;;21.38;86.24;96098.28;1036813;28;19912;-48
2021/08/15 01:00:51;;;;;;;;;;;;;;;21.38;86.30;96100.97;1036753;28;19906;-50
2021/08/15 01:01:21;;;;;;;;;;;;;;;21.40;86.47;96106.06;1036869;28;20052;-49
2021/08/15 01:01:52;;;;;;;;;;;;;;;21.45;86.50;96098.03;1036809;28;19912;-48
2021/08/15 01:02:23;;;;;;;;;;;;;;;21.45;86.24;96098.03;1041226;28;19988;-51
2021/08/15 01:02:53;;;;;;;;;;;;;;;21.45;86.16;96093.50;1041243;28;20203;-48
2021/08/15 01:03:23;;;;;;;;;;;;;;;21.43;86.03;96100.16;1041371;28;19924;-49
2021/08/15 01:03:54;;;;;;;;;;;;;;;21.36;86.46;96094.25;1036858;28;19913;-49
2021/08/15 01:04:24;;;;;;;;;;;;;;;21.33;86.68;96094.78;1036771;28;19912;-48
2021/08/15 01:04:55;;;;;;;;;;;;;;;21.35;86.91;96098.81;1036867;28;20454;-49
2021/08/15 01:05:25;;;;;;;;;;;;;;;21.38;86.59;96095.59;1032818;28;19906;-49
2021/08/15 01:05:55;;;;;;;;;;;;;;;21.33;86.55;96094.78;1036942;28;19902;-48
2021/08/15 01:06:25;;;;;;;;;;;;;;;21.33;86.53;96089.44;1036887;28;20346;-49
2021/08/15 01:06:56;;;;;;;;;;;;;;;21.32;86.92;96093.16;1036833;28;20254;-48
2021/08/15 01:07:26;;;;;;;;;;;;;;;21.29;87.01;96100.66;1041225;28;19959;-48
2021/08/15 01:07:57;;;;;;;;;;;;;;;21.26;87.33;96097.72;1041191;28;19912;-49
2021/08/15 01:08:27;;;;;;;;;;;;;;;21.36;87.20;96094.25;1041243;28;19951;-49
2021/08/15 01:08:57;;;;;;;;;;;;;;;21.37;87.16;96095.88;1041163;28;20008;-48
2021/08/15 01:09:28;;;;;;;;;;;;;;;21.33;87.09;96100.13;1041252;28;19913;-48
2021/08/15 01:09:58;;;;;;;;;;;;;;;21.36;86.95;96099.59;1041200;28;19913;-48
2021/08/15 01:10:28;;;;;;;;;;;;;;;21.34;86.92;96099.09;1041289;28;20294;-48
2021/08/15 01:11:00;;;;;;;;;;;;;;;21.43;86.46;96089.47;1041257;28;19909;-47
2021/08/15 01:11:31;;;;;;;;;;;;;;;21.48;86.23;96098.31;1041277;28;19921;-47
2021/08/15 01:12:02;;;;;;;;;;;;;;;21.37;86.27;96090.53;1036859;28;19917;-47
2021/08/15 01:12:32;;;;;;;;;;;;;;;21.34;87.07;96099.88;1032893;28;19914;-48
2021/08/15 01:13:02;;;;;;;;;;;;;;;21.33;86.98;96098.25;1033014;28;20295;-48
2021/08/15 01:13:33;;;;;;;;;;;;;;;21.27;86.96;96102.81;1033061;28;20004;-47
2021/08/15 01:14:05;;;;;;;;;;;;;;;21.23;87.30;96093.69;1036909;28;20004;-50
2021/08/15 01:14:35;;;;;;;;;;;;;;;21.22;87.66;96100.09;1036764;28;19975;-47
2021/08/15 01:15:06;;;;;;;;;;;;;;;21.22;87.88;96094.75;1032973;28;19910;-47
2021/08/15 01:15:38;;;;;;;;;;;;;;;21.24;87.54;96105.19;1036839;28;20023;-48
2021/08/15 01:16:08;;;;;;;;;;;;;;;21.28;87.28;96103.59;1036858;28;19965;-48
2021/08/15 01:16:39;;;;;;;;;;;;;;;21.29;87.28;96098.00;1037116;28;19913;-48
2021/08/15 01:17:09;;;;;;;;;;;;;;;21.31;87.09;96092.38;1032705;28;19956;-47
2021/08/15 01:17:39;;;;;;;;;;;;;;;21.29;86.97;96095.31;1032645;28;19914;-46
2021/08/15 01:18:25;;;;;;;;;;;;;;;21.27;87.02;96099.31;1032655;28;19906;-47
2021/08/15 01:18:56;;;;;;;;;;;;;;;21.24;87.54;96091.81;1037077;28;20382;-47
2021/08/15 01:19:30;;;;;;;;;;;;;;;21.33;87.42;96092.91;1041211;28;20018;-47
2021/08/15 01:20:00;;;;;;;;;;;;;;;21.33;86.99;96092.09;1041345;28;19936;-47
2021/08/15 01:20:30;;;;;;;;;;;;;;;21.33;87.09;96095.56;1041112;28;19909;-47
2021/08/15 01:21:03;;;;;;;;;;;;;;;21.29;86.97;96089.16;1041217;28;20023;-47
2021/08/15 01:21:34;;;;;;;;;;;;;;;21.18;87.56;96088.34;1041185;28;19905;-48
2021/08/15 01:22:04;;;;;;;;;;;;;;;21.21;87.83;96090.47;1041186;28;19971;-47
2021/08/15 01:22:37;;;;;;;;;;;;;;;21.24;87.73;96089.97;1036654;28;19932;-48
2021/08/15 01:23:08;;;;;;;;;;;;;;;21.20;87.76;96088.06;1036862;28;19909;-51
2021/08/15 01:23:39;;;;;;;;;;;;;;;21.17;87.76;96085.91;1036758;28;20393;-47
2021/08/15 01:24:09;;;;;;;;;;;;;;;21.13;88.04;96085.63;1037364;28;19941;-50
2021/08/15 01:24:39;;;;;;;;;;;;;;;21.18;88.08;96087.50;1040938;28;19912;-48
2021/08/15 01:25:10;;;;;;;;;;;;;;;21.16;87.82;96084.31;1041264;28;19913;-48
2021/08/15 01:25:40;;;;;;;;;;;;;;;21.20;88.02;96080.03;1041154;28;19906;-48
2021/08/15 01:26:12;;;;;;;;;;;;;;;21.11;88.41;96080.53;1041226;28;19955;-48
2021/08/15 01:26:42;;;;;;;;;;;;;;;21.06;88.42;96082.38;1041124;28;19909;-48
2021/08/15 01:27:13;;;;;;;;;;;;;;;21.07;88.56;96078.66;1036676;28;20346;-48
2021/08/15 01:27:43;;;;;;;;;;;;;;;21.08;88.36;96078.38;1032611;28;20383;-47
2021/08/15 01:28:17;;;;;;;;;;;;;;;21.10;88.20;96078.13;1032786;28;19949;-49
2021/08/15 01:28:48;;;;;;;;;;;;;;;21.07;88.53;96073.28;1033277;28;19906;-49
2021/08/15 01:29:19;;;;;;;;;;;;;;;21.09;88.33;96076.53;1037347;28;19910;-48
2021/08/15 01:29:49;;;;;;;;;;;;;;;21.07;88.56;96071.44;1041163;28;19909;-47
2021/08/15 01:30:22;;;;;;;;;;;;;;;21.07;88.85;96071.44;1041098;28;20361;-47
2021/08/15 01:30:52;;;;;;;;;;;;;;;21.19;88.29;96073.84;1041198;28;19906;-48
2021/08/15 01:31:23;;;;;;;;;;;;;;;21.22;88.39;96076.00;1036690;28;19949;-50
2021/08/15 01:31:53;;;;;;;;;;;;;;;21.17;87.99;96076.00;1036779;28;20302;-48
2021/08/15 01:32:23;;;;;;;;;;;;;;;21.11;88.02;96069.81;1036829;28;19927;-48
2021/08/15 01:32:54;;;;;;;;;;;;;;;21.14;88.21;96076.53;1036778;28;19916;-49
2021/08/15 01:33:24;;;;;;;;;;;;;;;21.14;87.91;96078.41;1036685;28;20307;-47
2021/08/15 01:33:54;;;;;;;;;;;;;;;21.16;88.00;96071.72;1036808;28;20040;-48
2021/08/15 01:34:25;;;;;;;;;;;;;;;21.19;87.68;96076.53;1036502;28;20212;-48
2021/08/15 01:34:55;;;;;;;;;;;;;;;21.19;87.73;96073.06;1036720;28;19910;-48
2021/08/15 01:35:25;;;;;;;;;;;;;;;21.17;87.64;96073.34;1041091;28;19906;-48
2021/08/15 01:35:56;;;;;;;;;;;;;;;21.09;88.00;96073.84;1041141;28;19917;-47
2021/08/15 01:36:26;;;;;;;;;;;;;;;21.19;88.11;96073.06;1041035;28;19967;-47
2021/08/15 01:36:56;;;;;;;;;;;;;;;21.10;88.13;96075.44;1041166;28;20348;-49
2021/08/15 01:37:27;;;;;;;;;;;;;;;21.13;88.05;96074.91;1041316;28;20318;-47
2021/08/15 01:37:57;;;;;;;;;;;;;;;21.15;88.06;96075.47;1041232;28;19905;-47
2021/08/15 01:38:28;;;;;;;;;;;;;;;21.15;88.27;96067.44;1041123;28;19909;-47
2021/08/15 01:38:58;;;;;;;;;;;;;;;21.12;88.04;96074.13;1041090;28;19977;-47
2021/08/15 01:39:29;;;;;;;;;;;;;;;21.11;87.71;96072.50;1041187;28;19963;-48
2021/08/15 01:40:02;;;;;;;;;;;;;;;21.07;87.90;96071.44;1041152;28;19905;-48
2021/08/15 01:40:33;;;;;;;;;;;;;;;21.09;87.94;96071.19;1041079;28;19974;-47
2021/08/15 01:41:03;;;;;;;;;;;;;;;20.98;88.62;96072.19;1041139;28;19905;-48
2021/08/15 01:41:33;;;;;;;;;;;;;;;20.96;89.04;96074.34;1041069;28;19913;-47
2021/08/15 01:42:04;;;;;;;;;;;;;;;20.90;89.21;96078.88;1041203;28;19909;-48
2021/08/15 01:42:34;;;;;;;;;;;;;;;20.91;89.34;96077.81;1041006;28;20441;-48
2021/08/15 01:43:04;;;;;;;;;;;;;;;20.88;89.35;96079.13;1041205;28;19909;-48
2021/08/15 01:43:50;;;;;;;;;;;;;;;20.87;89.24;96072.16;1041074;28;19963;-48
2021/08/15 01:44:20;;;;;;;;;;;;;;;20.92;89.38;96074.88;1040934;28;19909;-47
2021/08/15 01:44:50;;;;;;;;;;;;;;;20.98;89.29;96073.00;1041060;28;19992;-48
2021/08/15 01:45:21;;;;;;;;;;;;;;;21.02;88.86;96070.63;1041115;28;19932;-48
2021/08/15 01:45:51;;;;;;;;;;;;;;;21.00;89.04;96078.09;1040965;28;20338;-49
2021/08/15 01:46:22;;;;;;;;;;;;;;;20.92;88.97;96071.38;1041116;28;20367;-47
2021/08/15 01:46:52;;;;;;;;;;;;;;;20.91;89.21;96075.13;1041173;28;19909;-49
2021/08/15 01:47:22;;;;;;;;;;;;;;;20.98;89.45;96075.66;1041169;28;19909;-48
2021/08/15 01:47:53;;;;;;;;;;;;;;;20.95;89.08;96078.88;1041113;28;20247;-51
2021/08/15 01:48:23;;;;;;;;;;;;;;;20.89;89.52;96075.38;1036692;28;19948;-48
2021/08/15 01:48:53;;;;;;;;;;;;;;;20.88;89.27;96076.44;1036585;28;19928;-47
2021/08/15 01:49:24;;;;;;;;;;;;;;;20.88;89.38;96079.13;1036705;28;19910;-49
2021/08/15 01:49:54;;;;;;;;;;;;;;;20.88;89.67;96078.31;1036667;28;19913;-48
2021/08/15 01:50:24;;;;;;;;;;;;;;;20.88;89.41;96073.78;1041163;28;19909;-47
2021/08/15 01:50:55;;;;;;;;;;;;;;;20.89;89.56;96080.75;1036658;28;19921;-47
2021/08/15 01:51:25;;;;;;;;;;;;;;;20.92;89.04;96080.22;1036759;28;19913;-46
2021/08/15 01:51:55;;;;;;;;;;;;;;;20.92;88.85;96082.06;1036848;28;19959;-46
2021/08/15 01:52:26;;;;;;;;;;;;;;;20.91;88.67;96083.94;1036673;28;20030;-48
2021/08/15 01:52:56;;;;;;;;;;;;;;;20.91;89.05;96075.91;1041139;28;19913;-47
2021/08/15 01:53:26;;;;;;;;;;;;;;;20.91;89.07;96081.28;1036646;28;20464;-50
2021/08/15 01:53:57;;;;;;;;;;;;;;;20.85;89.52;96085.00;1036813;28;19959;-47
2021/08/15 01:54:28;;;;;;;;;;;;;;;20.93;89.25;96076.47;1036598;28;20038;-48
2021/08/15 01:54:58;;;;;;;;;;;;;;;20.98;89.22;96078.34;1032905;28;19924;-48
2021/08/15 01:55:28;;;;;;;;;;;;;;;20.92;89.22;96077.53;1036613;28;19969;-48
2021/08/15 01:55:58;;;;;;;;;;;;;;;20.94;89.47;96082.63;1036797;28;19918;-48
2021/08/15 01:56:29;;;;;;;;;;;;;;;20.96;88.96;96082.38;1036690;28;20019;-47
2021/08/15 01:56:59;;;;;;;;;;;;;;;20.88;89.03;96081.81;1040907;28;19913;-47
2021/08/15 01:57:29;;;;;;;;;;;;;;;20.83;89.76;96078.28;1036492;28;19967;-47
2021/08/15 01:58:00;;;;;;;;;;;;;;;20.80;90.03;96076.97;1036231;28;19909;-47
2021/08/15 01:58:30;;;;;;;;;;;;;;;20.95;89.46;96073.50;1036488;28;19914;-48
2021/08/15 01:59:00;;;;;;;;;;;;;;;20.88;89.34;96073.78;1036699;28;20378;-49
2021/08/15 01:59:31;;;;;;;;;;;;;;;20.82;89.76;96072.16;1041104;28;19913;-48
2021/08/15 02:00:01;;;;;;;;;;;;;;;20.74;90.26;96072.63;1041040;28;19909;-47
2021/08/15 02:00:32;;;;;;;;;;;;;;;20.71;90.59;96073.97;1041086;28;19938;-48
2021/08/15 02:01:02;;;;;;;;;;;;;;;20.67;90.86;96072.09;1041167;28;19909;-49
2021/08/15 02:01:32;;;;;;;;;;;;;;;20.68;90.79;96079.03;1041095;28;19953;-49
2021/08/15 02:02:03;;;;;;;;;;;;;;;20.74;90.60;96073.47;1041174;28;19909;-49
2021/08/15 02:02:33;;;;;;;;;;;;;;;20.81;90.27;96077.75;1041022;28;20088;-48
2021/08/15 02:03:03;;;;;;;;;;;;;;;20.80;90.22;96082.31;1041053;28;19913;-52
2021/08/15 02:03:34;;;;;;;;;;;;;;;20.73;90.39;96077.19;1040989;28;20740;-49
2021/08/15 02:04:04;;;;;;;;;;;;;;;20.71;90.52;96068.63;1041086;28;19913;-49
2021/08/15 02:04:34;;;;;;;;;;;;;;;20.68;90.93;96073.66;1040803;28;19935;-51
2021/08/15 02:05:05;;;;;;;;;;;;;;;20.68;91.05;96073.66;1041072;28;19959;-51
2021/08/15 02:05:35;;;;;;;;;;;;;;;20.71;90.84;96075.81;1040982;28;19913;-49
2021/08/15 02:06:05;;;;;;;;;;;;;;;20.69;90.69;96077.97;1040998;28;19995;-52
2021/08/15 02:06:36;;;;;;;;;;;;;;;20.74;90.71;96069.94;1041043;28;19913;-50
2021/08/15 02:07:06;;;;;;;;;;;;;;;20.71;90.50;96073.16;1041036;28;19919;-50
2021/08/15 02:07:36;;;;;;;;;;;;;;;20.67;90.91;96066.72;1041016;28;19994;-52
2021/08/15 02:08:06;;;;;;;;;;;;;;;20.63;90.94;96074.44;1041025;28;20288;-52
2021/08/15 02:08:37;;;;;;;;;;;;;;;20.65;90.99;96068.81;1036538;28;19914;-48
2021/08/15 02:09:07;;;;;;;;;;;;;;;20.65;91.20;96074.16;1036630;28;19906;-47
2021/08/15 02:09:37;;;;;;;;;;;;;;;20.65;91.18;96068.81;1036574;28;20298;-50
2021/08/15 02:10:08;;;;;;;;;;;;;;;20.66;91.20;96073.13;1036675;28;19906;-47
2021/08/15 02:10:38;;;;;;;;;;;;;;;20.67;91.10;96067.53;1040987;28;19905;-51
2021/08/15 02:11:08;;;;;;;;;;;;;;;20.72;90.76;96072.09;1041039;28;19909;-48
2021/08/15 02:11:39;;;;;;;;;;;;;;;20.70;90.47;96072.34;1036606;28;19964;-50
2021/08/15 02:12:09;;;;;;;;;;;;;;;20.71;90.46;96071.31;1036583;28;19905;-51
2021/08/15 02:12:39;;;;;;;;;;;;;;;20.71;90.71;96073.16;1032561;28;19905;-51
2021/08/15 02:13:10;;;;;;;;;;;;;;;20.70;90.91;96071.56;1032532;28;19969;-49
2021/08/15 02:13:40;;;;;;;;;;;;;;;20.76;90.45;96071.31;1036566;28;19915;-49
2021/08/15 02:14:10;;;;;;;;;;;;;;;20.81;90.31;96072.41;1036498;28;20390;-51
2021/08/15 02:14:41;;;;;;;;;;;;;;;20.88;89.81;96078.31;1041063;28;19908;-48
2021/08/15 02:15:11;;;;;;;;;;;;;;;20.86;89.72;96077.78;1040862;28;19954;-51
2021/08/15 02:15:41;;;;;;;;;;;;;;;20.83;89.74;96071.09;1036435;28;19913;-50
2021/08/15 02:16:12;;;;;;;;;;;;;;;20.80;89.78;96071.63;1032547;28;19913;-51
2021/08/15 02:16:42;;;;;;;;;;;;;;;20.79;90.07;96064.63;1032576;28;19953;-51
2021/08/15 02:17:13;;;;;;;;;;;;;;;20.79;90.23;96078.03;1032546;28;19920;-51
2021/08/15 02:17:43;;;;;;;;;;;;;;;20.74;90.40;96068.09;1036636;28;19993;-51
2021/08/15 02:18:13;;;;;;;;;;;;;;;20.77;90.31;96072.94;1040930;28;20321;-52
2021/08/15 02:18:44;;;;;;;;;;;;;;;20.71;90.12;96065.94;1041030;28;19985;-51
2021/08/15 02:19:14;;;;;;;;;;;;;;;20.67;90.58;96069.41;1040881;28;20286;-49
2021/08/15 02:19:44;;;;;;;;;;;;;;;20.78;90.51;96073.72;1041049;28;19967;-49
2021/08/15 02:20:15;;;;;;;;;;;;;;;20.74;90.10;96072.63;1040995;28;19957;-52
2021/08/15 02:21:04;;;;;;;;;;;;;;;20.88;89.36;96068.41;1041032;28;19974;-48
2021/08/15 02:21:34;;;;;;;;;;;;;;;20.87;89.16;96076.72;1040913;28;19917;-51
2021/08/15 02:22:04;;;;;;;;;;;;;;;20.87;89.29;96072.16;1041075;28;20378;-51
2021/08/15 02:22:34;;;;;;;;;;;;;;;20.85;89.32;96073.50;1040851;28;19923;-52
2021/08/15 02:23:05;;;;;;;;;;;;;;;20.80;89.62;96076.97;1040903;28;19917;-49
2021/08/15 02:23:35;;;;;;;;;;;;;;;20.79;89.66;96069.19;1036654;28;19913;-50
2021/08/15 02:24:05;;;;;;;;;;;;;;;20.80;89.85;96068.13;1036493;28;19914;-49
2021/08/15 02:24:35;;;;;;;;;;;;;;;20.74;90.23;96065.44;1036331;28;19920;-49
2021/08/15 02:25:07;;;;;;;;;;;;;;;20.66;90.68;96070.47;1036530;28;20390;-46
2021/08/15 02:25:37;;;;;;;;;;;;;;;20.67;90.89;96067.53;1040919;28;19913;-50
2021/08/15 02:26:07;;;;;;;;;;;;;;;20.74;90.46;96070.78;1040946;28;19917;-51
2021/08/15 02:26:38;;;;;;;;;;;;;;;20.71;90.63;96073.97;1040910;28;19982;-48
2021/08/15 02:27:08;;;;;;;;;;;;;;;20.65;91.00;96069.66;1041003;28;19916;-48
2021/08/15 02:27:38;;;;;;;;;;;;;;;20.66;91.00;96070.47;1036574;28;20267;-47
2021/08/15 02:28:09;;;;;;;;;;;;;;;20.69;90.80;96083.31;1036487;28;19913;-48
2021/08/15 02:28:39;;;;;;;;;;;;;;;20.67;90.88;96080.91;1036487;28;19920;-52
2021/08/15 02:29:09;;;;;;;;;;;;;;;20.80;90.39;96074.28;1036541;28;20297;-48
2021/08/15 02:29:40;;;;;;;;;;;;;;;20.79;90.25;96070.00;1036495;28;19910;-52
2021/08/15 02:30:11;;;;;;;;;;;;;;;20.77;90.11;96074.81;1036500;28;20382;-51
2021/08/15 02:30:41;;;;;;;;;;;;;;;20.73;90.26;96071.84;1036545;28;19910;-50
2021/08/15 02:31:11;;;;;;;;;;;;;;;20.74;90.40;96076.13;1036565;28;19913;-51
2021/08/15 02:31:41;;;;;;;;;;;;;;;20.70;90.71;96074.25;1040881;28;19963;-48
2021/08/15 02:32:12;;;;;;;;;;;;;;;20.66;91.35;96081.16;1040941;28;19909;-51
2021/08/15 02:32:42;;;;;;;;;;;;;;;20.62;91.37;96072.00;1036423;28;19909;-49
2021/08/15 02:33:12;;;;;;;;;;;;;;;20.69;91.24;96080.66;1036628;28;20440;-51
2021/08/15 02:33:43;;;;;;;;;;;;;;;20.68;90.89;96081.69;1036426;28;19910;-48
2021/08/15 02:34:13;;;;;;;;;;;;;;;20.65;90.85;96077.69;1036381;28;19964;-51
2021/08/15 02:34:43;;;;;;;;;;;;;;;20.65;90.86;96083.03;1040914;28;19917;-51
2021/08/15 02:35:14;;;;;;;;;;;;;;;20.62;91.03;96080.03;1040872;28;19909;-48
2021/08/15 02:35:44;;;;;;;;;;;;;;;20.59;91.17;96078.72;1036437;28;19910;-51
2021/08/15 02:36:14;;;;;;;;;;;;;;;20.59;91.30;96082.19;1036565;28;19912;-51
2021/08/15 02:36:45;;;;;;;;;;;;;;;20.57;91.40;96078.97;1036539;28;20314;-50
2021/08/15 02:37:15;;;;;;;;;;;;;;;20.58;91.69;96075.22;1036715;28;19909;-51
2021/08/15 02:37:46;;;;;;;;;;;;;;;20.58;91.36;96077.09;1036531;28;19914;-49
2021/08/15 02:38:16;;;;;;;;;;;;;;;20.58;91.34;96069.06;1036635;28;19955;-48
2021/08/15 02:38:46;;;;;;;;;;;;;;;20.57;91.66;96078.97;1036459;28;19959;-49
2021/08/15 02:39:17;;;;;;;;;;;;;;;20.57;91.69;96083.50;1036625;28;19912;-48
2021/08/15 02:39:47;;;;;;;;;;;;;;;20.54;92.14;96082.16;1040856;28;19916;-48